Time;durP1;ratioP1;P1;durP2;ratioP2;P2;SDS_P1;SDS_P2;PMS_P1;PMS_P2;Temp;Humidity;BMP_temperature;BMP_pressure;BME280_temperature;BME280_humidity;BME280_pressure;Samples;Min_cycle;Max_cycle;Signal;HPM_P1;HPM_P2
2023/07/29 00:00:41;;;;;;;4.65;2.75;;;28.10;47.80;;;;;;4995612;28;20033;-72
2023/07/29 00:03:07;;;;;;;5.07;2.67;;;28.30;47.80;;;;;;4994922;28;20046;-72
2023/07/29 00:05:33;;;;;;;8.70;2.88;;;28.10;47.80;;;;;;4995698;28;20030;-72
2023/07/29 00:07:59;;;;;;;7.47;2.90;;;28.30;47.80;;;;;;4993861;28;20101;-72
2023/07/29 00:10:27;;;;;;;5.50;2.83;;;28.10;47.80;;;;;;4995231;28;20030;-72
2023/07/29 00:12:53;;;;;;;4.07;3.08;;;28.10;47.90;;;;;;4994683;28;20035;-72
2023/07/29 00:15:19;;;;;;;7.10;2.85;;;28.30;47.90;;;;;;4994726;28;20486;-72
2023/07/29 00:17:45;;;;;;;5.20;3.15;;;28.30;48.00;;;;;;4994763;28;20088;-73
2023/07/29 00:20:11;;;;;;;5.22;2.90;;;28.20;48.00;;;;;;5023964;28;20054;-72
2023/07/29 00:22:38;;;;;;;5.35;2.95;;;28.30;48.00;;;;;;4994471;28;20034;-72
2023/07/29 00:25:04;;;;;;;7.78;3.13;;;28.10;48.00;;;;;;4992792;28;20084;-73
2023/07/29 00:27:31;;;;;;;2.78;2.33;;;28.10;48.00;;;;;;4994824;28;20089;-72
2023/07/29 00:29:57;;;;;;;6.07;2.50;;;28.10;48.00;;;;;;4993732;28;20053;-71
2023/07/29 00:32:23;;;;;;;4.22;2.83;;;28.20;48.10;;;;;;4993816;28;20077;-72
2023/07/29 00:34:49;;;;;;;6.47;2.53;;;28.20;48.00;;;;;;5003444;28;20031;-72
2023/07/29 00:37:15;;;;;;;4.75;2.25;;;28.10;48.10;;;;;;5002371;28;20042;-72
2023/07/29 00:39:41;;;;;;;4.82;2.70;;;28.10;48.10;;;;;;4990879;28;20034;-72
2023/07/29 00:42:09;;;;;;;3.88;2.42;;;28.20;48.10;;;;;;4992241;28;20038;-72
2023/07/29 00:44:35;;;;;;;4.72;2.47;;;28.30;48.20;;;;;;4992825;28;20105;-72
2023/07/29 00:47:05;;;;;;;6.47;2.65;;;28.10;48.30;;;;;;4992402;28;20045;-72
2023/07/29 00:49:32;;;;;;;4.43;2.72;;;28.10;48.30;;;;;;4989744;28;20379;-72
2023/07/29 00:51:58;;;;;;;5.97;2.75;;;28.20;48.30;;;;;;5006506;28;20039;-72
2023/07/29 00:54:25;;;;;;;6.82;2.85;;;28.20;48.30;;;;;;4991989;28;20045;-72
2023/07/29 00:56:51;;;;;;;7.53;2.92;;;28.10;48.30;;;;;;4992172;28;20046;-72
2023/07/29 00:59:17;;;;;;;4.00;2.70;;;28.10;48.40;;;;;;4992676;28;20438;-72
2023/07/29 01:01:44;;;;;;;4.95;2.67;;;28.10;48.40;;;;;;4993124;28;20034;-72
2023/07/29 01:04:10;;;;;;;5.45;2.78;;;28.20;48.40;;;;;;5005226;28;20058;-72
2023/07/29 01:07:03;;;;;;;9.77;3.33;;;28.20;48.40;;;;;;4991228;28;20073;-72
2023/07/29 01:09:47;;;;;;;5.17;3.13;;;28.20;48.50;;;;;;4970399;28;20105;-72
2023/07/29 01:12:13;;;;;;;10.63;3.20;;;28.30;48.40;;;;;;4954821;28;20047;-72
2023/07/29 01:14:59;;;;;;;6.80;3.90;;;28.20;48.40;;;;;;4954266;28;20042;-72
2023/07/29 01:17:36;;;;;;;6.65;3.45;;;28.20;48.40;;;;;;4970596;28;20051;-72
2023/07/29 01:20:09;;;;;;;4.07;2.80;;;28.20;48.40;;;;;;4968941;28;20118;-72
2023/07/29 01:22:37;;;;;;;3.40;2.92;;;28.10;48.40;;;;;;4970496;28;20108;-72
2023/07/29 01:25:03;;;;;;;6.38;3.10;;;28.00;48.40;;;;;;4968640;28;20038;-72
2023/07/29 01:27:30;;;;;;;7.20;3.25;;;28.00;48.50;;;;;;4954828;28;20149;-72
2023/07/29 01:29:58;;;;;;;6.60;3.13;;;28.10;48.50;;;;;;4969669;28;20077;-72
2023/07/29 01:32:44;;;;;;;5.30;3.03;;;28.10;48.50;;;;;;4921872;28;1398464;-72
2023/07/29 01:35:24;;;;;;;3.78;2.97;;;28.00;48.60;;;;;;4969870;28;20072;-72
2023/07/29 01:38:21;;;;;;;5.32;2.90;;;28.20;48.70;;;;;;4971519;28;20517;-72
2023/07/29 01:40:50;;;;;;;3.92;2.88;;;28.10;48.70;;;;;;4913038;29;20128;-72
2023/07/29 01:43:18;;;;;;;7.00;3.08;;;28.10;48.80;;;;;;4913038;29;20044;-72
2023/07/29 01:45:45;;;;;;;4.82;3.08;;;28.10;48.80;;;;;;4876382;29;20323;-72
2023/07/29 01:48:11;;;;;;;7.40;2.78;;;28.00;48.80;;;;;;4895551;29;20093;-72
2023/07/29 01:50:37;;;;;;;7.15;2.90;;;28.00;48.80;;;;;;4878705;29;20072;-72
2023/07/29 01:53:03;;;;;;;3.90;2.92;;;28.10;48.80;;;;;;4894387;29;20049;-71
2023/07/29 01:55:29;;;;;;;6.68;3.33;;;28.10;48.90;;;;;;4891860;29;20786;-72
2023/07/29 01:57:56;;;;;;;6.30;3.13;;;28.00;48.90;;;;;;4879171;29;20080;-72
2023/07/29 02:00:23;;;;;;;7.30;3.97;;;28.00;48.90;;;;;;4878275;29;20041;-72
2023/07/29 02:02:49;;;;;;;7.70;3.28;;;28.10;48.90;;;;;;4894406;29;20036;-72
2023/07/29 02:05:15;;;;;;;5.55;3.17;;;28.10;48.90;;;;;;4893853;29;20120;-72
2023/07/29 02:07:42;;;;;;;6.53;3.55;;;28.00;48.90;;;;;;4892403;29;20036;-71
2023/07/29 02:10:08;;;;;;;7.57;3.22;;;28.10;48.90;;;;;;4876233;29;20028;-72
2023/07/29 02:12:34;;;;;;;6.38;3.00;;;28.10;48.90;;;;;;4878523;29;20076;-72
2023/07/29 02:15:08;;;;;;;5.43;2.75;;;28.00;48.90;;;;;;4874507;29;20048;-72
2023/07/29 02:17:36;;;;;;;6.05;2.78;;;28.20;48.90;;;;;;4930800;28;20053;-72
2023/07/29 02:20:03;;;;;;;8.10;3.10;;;28.00;48.90;;;;;;4980885;28;20129;-72
2023/07/29 02:22:30;;;;;;;6.63;3.20;;;28.00;48.90;;;;;;4988844;28;20046;-72
2023/07/29 02:24:56;;;;;;;12.50;3.60;;;28.10;48.90;;;;;;4987491;28;20049;-72
2023/07/29 02:27:22;;;;;;;3.40;2.55;;;28.00;48.90;;;;;;4957391;28;20057;-72
2023/07/29 02:29:48;;;;;;;3.45;2.60;;;28.00;48.90;;;;;;4972891;28;20046;-72
2023/07/29 02:32:14;;;;;;;5.07;2.80;;;27.80;48.40;;;;;;4972523;28;20051;-72
2023/07/29 02:34:41;;;;;;;5.47;3.08;;;27.90;48.50;;;;;;4971943;28;20383;-72
2023/07/29 02:37:07;;;;;;;7.90;2.90;;;28.00;49.10;;;;;;4990247;28;20050;-72
2023/07/29 02:39:33;;;;;;;4.03;2.70;;;27.90;48.60;;;;;;4988569;28;20034;-72
2023/07/29 02:41:59;;;;;;;7.53;2.75;;;27.80;48.70;;;;;;4989990;28;20034;-72
2023/07/29 02:44:26;;;;;;;3.67;2.70;;;28.10;49.20;;;;;;4972907;28;20037;-72
2023/07/29 02:46:52;;;;;;;8.25;2.70;;;27.90;48.70;;;;;;4991190;28;20038;-72
2023/07/29 02:49:18;;;;;;;4.90;2.97;;;28.00;49.30;;;;;;4991163;28;20041;-72
2023/07/29 02:51:45;;;;;;;3.95;2.63;;;27.90;48.80;;;;;;5006196;28;20040;-72
2023/07/29 02:54:11;;;;;;;7.03;3.55;;;28.10;49.30;;;;;;4989723;28;20038;-72
2023/07/29 02:56:37;;;;;;;4.78;2.90;;;28.00;49.40;;;;;;4991787;28;20088;-72
2023/07/29 02:59:03;;;;;;;5.60;3.47;;;28.00;49.40;;;;;;4990879;28;20038;-72
2023/07/29 03:01:30;;;;;;;5.53;3.33;;;27.90;48.80;;;;;;4990879;28;20405;-72
2023/07/29 03:03:56;;;;;;;9.65;3.05;;;27.90;48.90;;;;;;4990785;28;20038;-72
2023/07/29 03:06:23;;;;;;;4.82;3.20;;;28.00;49.40;;;;;;4991579;28;20126;-72
2023/07/29 03:08:49;;;;;;;6.50;4.00;;;28.00;49.40;;;;;;5009174;28;20073;-72
2023/07/29 03:11:16;;;;;;;7.90;3.45;;;27.90;48.90;;;;;;4975977;28;20042;-72
2023/07/29 03:13:43;;;;;;;4.07;3.17;;;28.00;49.40;;;;;;4972439;28;20034;-72
2023/07/29 03:16:09;;;;;;;4.70;3.50;;;28.00;49.40;;;;;;5004660;28;20061;-72
2023/07/29 03:18:38;;;;;;;8.25;4.72;;;28.00;49.40;;;;;;4986100;28;20039;-72
2023/07/29 03:21:04;;;;;;;13.98;10.63;;;27.90;48.80;;;;;;5007769;28;20042;-72
2023/07/29 03:23:31;;;;;;;23.08;16.70;;;28.00;49.40;;;;;;4973644;28;20050;-72
2023/07/29 03:25:59;;;;;;;20.63;17.00;;;28.00;49.40;;;;;;4984879;28;20043;-72
2023/07/29 03:28:30;;;;;;;19.00;16.02;;;27.90;48.90;;;;;;4969697;28;20093;-72
2023/07/29 03:30:56;;;;;;;17.00;13.68;;;27.90;48.90;;;;;;5004341;28;20034;-72
2023/07/29 03:33:24;;;;;;;12.15;6.25;;;27.80;48.90;;;;;;4988901;28;20062;-72
2023/07/29 03:35:50;;;;;;;4.65;3.58;;;27.90;48.90;;;;;;4997348;28;20049;-72
2023/07/29 03:38:16;;;;;;;3.83;2.78;;;27.80;48.90;;;;;;5008650;28;20092;-72
2023/07/29 03:40:43;;;;;;;4.13;2.78;;;27.80;49.00;;;;;;4937861;28;20092;-72
2023/07/29 03:43:09;;;;;;;3.30;2.10;;;27.90;49.10;;;;;;4990326;28;20031;-72
2023/07/29 03:45:36;;;;;;;3.58;2.53;;;27.80;49.10;;;;;;4989529;28;20037;-72
2023/07/29 03:48:04;;;;;;;4.13;2.78;;;27.90;49.10;;;;;;4990251;28;20038;-72
2023/07/29 03:50:31;;;;;;;3.58;3.08;;;27.90;49.10;;;;;;4989711;28;20061;-72
2023/07/29 03:52:57;;;;;;;4.10;2.55;;;27.90;49.20;;;;;;4990155;28;20038;-72
2023/07/29 03:55:23;;;;;;;7.07;2.50;;;27.90;49.20;;;;;;4988149;28;20173;-72
2023/07/29 03:57:50;;;;;;;3.75;2.70;;;27.90;49.20;;;;;;4991713;28;20088;-72
2023/07/29 04:00:16;;;;;;;2.95;2.30;;;27.80;49.20;;;;;;4990764;28;20034;-72
2023/07/29 04:02:42;;;;;;;4.55;3.55;;;27.90;49.20;;;;;;4990805;28;20040;-72
2023/07/29 04:05:10;;;;;;;7.68;4.88;;;28.00;49.70;;;;;;5005024;28;20117;-72
2023/07/29 04:07:37;;;;;;;5.85;3.97;;;28.00;49.70;;;;;;4974056;28;20475;-72
2023/07/29 04:10:04;;;;;;;11.30;4.07;;;27.80;49.20;;;;;;4990638;28;20027;-72
2023/07/29 04:12:30;;;;;;;10.38;3.72;;;27.90;49.20;;;;;;4990050;28;20047;-72
2023/07/29 04:14:57;;;;;;;8.52;3.67;;;27.90;49.20;;;;;;4986646;28;20749;-72
2023/07/29 04:17:23;;;;;;;4.47;3.00;;;27.90;49.20;;;;;;4989313;28;20034;-72
2023/07/29 04:19:49;;;;;;;5.13;3.20;;;28.00;49.70;;;;;;5003842;28;20050;-72
2023/07/29 04:22:16;;;;;;;11.65;3.42;;;27.80;49.10;;;;;;5006018;28;20046;-72
2023/07/29 04:24:43;;;;;;;4.35;3.13;;;27.80;49.20;;;;;;4990090;28;20061;-72
2023/07/29 04:27:09;;;;;;;6.47;3.00;;;27.90;49.10;;;;;;5003910;28;20046;-72
2023/07/29 04:29:36;;;;;;;5.70;3.28;;;27.90;49.10;;;;;;4987037;28;20042;-72
2023/07/29 04:32:03;;;;;;;6.57;3.25;;;27.90;49.10;;;;;;4990622;28;20054;-72
2023/07/29 04:34:29;;;;;;;11.63;4.65;;;28.00;49.70;;;;;;4989059;28;20042;-72
2023/07/29 04:36:55;;;;;;;9.85;3.63;;;27.80;49.10;;;;;;4991086;28;20034;-72
2023/07/29 04:39:21;;;;;;;6.75;3.75;;;27.90;49.10;;;;;;4990596;28;20040;-71
2023/07/29 04:41:47;;;;;;;10.18;4.18;;;27.90;49.20;;;;;;4993456;28;20110;-72
2023/07/29 04:44:14;;;;;;;4.10;3.28;;;27.90;49.30;;;;;;4989325;28;20062;-72
2023/07/29 04:46:40;;;;;;;5.00;2.70;;;27.90;49.30;;;;;;4992949;28;20105;-72
2023/07/29 04:49:07;;;;;;;4.38;3.03;;;27.90;49.30;;;;;;4994148;28;20419;-71
2023/07/29 04:51:33;;;;;;;5.22;2.92;;;27.90;49.40;;;;;;4994646;28;20041;-72
2023/07/29 04:54:02;;;;;;;4.10;3.15;;;27.90;49.40;;;;;;4992495;28;20075;-71
2023/07/29 04:56:28;;;;;;;4.78;2.35;;;27.80;49.40;;;;;;4975409;28;20874;-72
2023/07/29 04:58:55;;;;;;;2.15;1.98;;;28.00;50.00;;;;;;4993364;28;20034;-72
2023/07/29 05:01:23;;;;;;;7.78;3.15;;;27.90;49.40;;;;;;4993301;28;20128;-71
2023/07/29 05:03:50;;;;;;;5.18;3.33;;;27.90;49.50;;;;;;4993046;28;20045;-72
2023/07/29 05:06:16;;;;;;;6.53;3.00;;;28.00;50.00;;;;;;4992575;28;20132;-72
2023/07/29 05:08:42;;;;;;;5.60;3.50;;;27.90;49.50;;;;;;4993075;28;20038;-72
2023/07/29 05:11:08;;;;;;;6.07;3.25;;;27.90;49.50;;;;;;4990271;28;20088;-72
2023/07/29 05:13:34;;;;;;;7.47;3.72;;;27.90;49.50;;;;;;4992983;28;20121;-72
2023/07/29 05:16:00;;;;;;;3.63;2.78;;;27.90;49.40;;;;;;4992637;28;20029;-72
2023/07/29 05:18:26;;;;;;;6.22;3.10;;;28.00;50.00;;;;;;5024531;28;20038;-72
2023/07/29 05:20:53;;;;;;;5.80;3.03;;;27.90;49.40;;;;;;5006671;28;20051;-71
2023/07/29 05:23:19;;;;;;;4.78;2.92;;;28.00;50.00;;;;;;4990554;28;20045;-72
2023/07/29 05:25:45;;;;;;;4.95;2.63;;;27.90;49.40;;;;;;5004729;28;20041;-72
2023/07/29 05:28:11;;;;;;;2.22;1.95;;;27.90;49.40;;;;;;4988791;28;20066;-71
2023/07/29 05:30:39;;;;;;;3.42;1.90;;;27.90;49.40;;;;;;4991228;28;20062;-73
2023/07/29 05:33:09;;;;;;;1.80;1.60;;;27.80;49.50;;;;;;4992604;28;20077;-73
2023/07/29 05:35:35;;;;;;;2.78;2.25;;;27.90;49.40;;;;;;5019941;28;20084;-72
2023/07/29 05:38:03;;;;;;;3.35;1.90;;;27.90;49.20;;;;;;5023715;28;20052;-73
2023/07/29 05:40:30;;;;;;;2.35;1.95;;;27.90;48.80;;;;;;5008501;28;20045;-73
2023/07/29 05:42:59;;;;;;;5.60;2.55;;;27.90;48.30;;;;;;4994755;28;20033;-72
2023/07/29 05:45:26;;;;;;;4.90;2.58;;;27.70;47.90;;;;;;4990320;28;20132;-72
2023/07/29 05:47:53;;;;;;;2.92;2.20;;;27.80;47.50;;;;;;4990316;28;20564;-72
2023/07/29 05:50:20;;;;;;;3.42;2.15;;;27.70;47.10;;;;;;4985922;28;20054;-72
2023/07/29 05:52:47;;;;;;;3.33;3.03;;;27.80;46.70;;;;;;4990979;28;20062;-73
2023/07/29 05:55:13;;;;;;;3.78;2.20;;;27.80;46.40;;;;;;4990307;28;20053;-73
2023/07/29 05:57:39;;;;;;;3.15;2.30;;;27.70;46.00;;;;;;4973455;28;20058;-74
2023/07/29 06:00:08;;;;;;;3.75;2.03;;;27.90;45.00;;;;;;4990835;28;20418;-72
2023/07/29 06:02:47;;;;;;;2.90;2.10;;;27.70;45.10;;;;;;4990810;28;20112;-74
2023/07/29 06:05:16;;;;;;;4.05;2.17;;;27.80;44.40;;;;;;4988947;28;20050;-73
2023/07/29 06:07:47;;;;;;;2.95;1.88;;;27.90;44.70;;;;;;4990856;28;20604;-72
2023/07/29 06:10:17;;;;;;;2.35;1.85;;;27.90;45.10;;;;;;4973785;28;20093;-72
2023/07/29 06:12:44;;;;;;;3.10;2.25;;;28.00;45.70;;;;;;4990801;28;20512;-72
2023/07/29 06:15:12;;;;;;;3.50;2.28;;;28.10;45.50;;;;;;4974419;28;20165;-72
2023/07/29 06:17:38;;;;;;;4.25;2.22;;;27.90;44.80;;;;;;4974641;28;20043;-72
2023/07/29 06:20:05;;;;;;;3.75;3.35;;;28.00;45.10;;;;;;4973706;28;20113;-78
2023/07/29 06:22:32;;;;;;;5.10;3.35;;;28.10;46.60;;;;;;4987745;28;20490;-74
2023/07/29 06:24:58;;;;;;;10.35;5.18;;;28.00;45.60;;;;;;4972573;28;20070;-74
2023/07/29 06:27:25;;;;;;;2.83;2.45;;;28.10;45.90;;;;;;4991795;28;20030;-72
2023/07/29 06:29:51;;;;;;;3.63;2.15;;;28.10;45.00;;;;;;4992806;28;20374;-72
2023/07/29 06:32:17;;;;;;;3.97;2.20;;;28.10;45.40;;;;;;4992590;28;20128;-73
2023/07/29 06:34:44;;;;;;;4.55;2.45;;;28.10;45.30;;;;;;4992864;28;20089;-75
2023/07/29 06:37:10;;;;;;;3.55;2.28;;;28.10;46.70;;;;;;5006094;28;20049;-75
2023/07/29 06:39:36;;;;;;;4.40;2.47;;;28.10;45.60;;;;;;4992171;28;20097;-76
2023/07/29 06:42:02;;;;;;;4.55;2.47;;;28.10;48.40;;;;;;4991897;28;20022;-74
2023/07/29 06:44:29;;;;;;;6.35;2.38;;;28.10;49.10;;;;;;5006705;28;20049;-74
2023/07/29 06:46:55;;;;;;;3.97;2.47;;;28.10;49.60;;;;;;4992641;28;20039;-72
2023/07/29 06:49:21;;;;;;;4.10;2.25;;;28.10;47.70;;;;;;4992537;28;20124;-73
2023/07/29 06:51:50;;;;;;;6.43;2.33;;;28.10;46.60;;;;;;4992808;28;20038;-73
2023/07/29 06:54:17;;;;;;;5.55;1.80;;;28.00;46.60;;;;;;4992295;28;20023;-72
2023/07/29 06:56:43;;;;;;;2.60;2.40;;;28.10;46.40;;;;;;4991760;28;20034;-73
2023/07/29 06:59:09;;;;;;;2.47;2.28;;;28.10;45.70;;;;;;4992526;28;20041;-73
2023/07/29 07:01:35;;;;;;;5.35;2.55;;;28.10;45.30;;;;;;4992174;28;20121;-72
2023/07/29 07:04:01;;;;;;;3.63;2.00;;;28.10;45.40;;;;;;4991453;28;20545;-71
2023/07/29 07:06:28;;;;;;;4.40;2.65;;;28.20;45.30;;;;;;4992361;28;20030;-71
2023/07/29 07:08:54;;;;;;;3.60;2.47;;;28.20;45.30;;;;;;4992098;28;20034;-70
2023/07/29 07:11:20;;;;;;;2.53;2.17;;;28.40;45.40;;;;;;4991144;28;20038;-69
2023/07/29 07:13:46;;;;;;;2.42;2.22;;;28.20;45.40;;;;;;4992128;28;20046;-70
2023/07/29 07:16:12;;;;;;;3.00;2.17;;;28.30;45.40;;;;;;4991785;28;20061;-70
2023/07/29 07:18:38;;;;;;;3.10;2.28;;;28.20;45.30;;;;;;4991859;28;20026;-70
2023/07/29 07:21:04;;;;;;;4.20;2.47;;;28.30;45.50;;;;;;4972663;28;20050;-70
2023/07/29 07:23:30;;;;;;;3.08;2.17;;;28.30;45.50;;;;;;4987538;28;20047;-70
2023/07/29 07:25:56;;;;;;;2.95;2.03;;;28.30;45.60;;;;;;4993165;28;20132;-70
2023/07/29 07:28:22;;;;;;;3.05;2.30;;;28.20;45.80;;;;;;4992073;28;20095;-69
2023/07/29 07:30:48;;;;;;;2.47;2.05;;;28.40;45.90;;;;;;5005981;28;20046;-70
2023/07/29 07:33:14;;;;;;;3.25;2.58;;;28.40;46.00;;;;;;5002780;28;20546;-70
2023/07/29 07:35:42;;;;;;;6.22;2.55;;;28.40;46.30;;;;;;4982579;28;20098;-70
2023/07/29 07:38:09;;;;;;;3.55;2.15;;;28.40;46.90;;;;;;4997988;28;20131;-69
2023/07/29 07:40:36;;;;;;;3.55;2.60;;;28.20;47.00;;;;;;4982643;28;20049;-70
2023/07/29 07:43:02;;;;;;;5.53;2.47;;;28.30;47.20;;;;;;4986417;28;20060;-69
2023/07/29 07:45:28;;;;;;;2.67;2.20;;;28.10;47.40;;;;;;4991629;28;20048;-69
2023/07/29 07:47:54;;;;;;;4.28;2.00;;;28.10;47.40;;;;;;4985816;28;20068;-70
2023/07/29 07:50:21;;;;;;;3.15;2.53;;;28.10;47.50;;;;;;4975044;28;20030;-72
2023/07/29 07:52:47;;;;;;;1.90;1.73;;;28.30;47.30;;;;;;4972416;28;20535;-72
2023/07/29 07:55:16;;;;;;;2.80;2.40;;;28.30;47.20;;;;;;4977656;28;20039;-72
2023/07/29 07:57:42;;;;;;;2.88;2.05;;;28.10;47.40;;;;;;5031835;28;20047;-73
2023/07/29 08:00:09;;;;;;;3.47;2.13;;;28.10;47.40;;;;;;4974332;28;20817;-71
2023/07/29 08:02:43;;;;;;;5.60;2.00;;;28.30;47.40;;;;;;4987740;28;20030;-74
2023/07/29 08:05:09;;;;;;;9.07;2.42;;;28.20;47.40;;;;;;4987139;28;20109;-73
2023/07/29 08:07:35;;;;;;;5.43;2.40;;;28.30;47.40;;;;;;4981001;28;20040;-74
2023/07/29 08:10:02;;;;;;;5.32;2.35;;;28.40;47.50;;;;;;4976060;28;20474;-75
2023/07/29 08:12:28;;;;;;;3.13;2.42;;;28.40;47.50;;;;;;4987791;28;20089;-74
2023/07/29 08:14:54;;;;;;;5.57;2.20;;;28.30;47.60;;;;;;4993602;28;20034;-74
2023/07/29 08:17:20;;;;;;;3.20;2.30;;;28.40;47.70;;;;;;4995751;28;20392;-74
2023/07/29 08:19:47;;;;;;;4.82;2.22;;;28.40;47.60;;;;;;4995296;28;20113;-74
2023/07/29 08:22:13;;;;;;;3.72;2.20;;;28.30;47.70;;;;;;4995396;28;20128;-75
2023/07/29 08:24:39;;;;;;;2.47;2.10;;;28.40;47.70;;;;;;4995090;28;20045;-75
2023/07/29 08:27:05;;;;;;;2.88;1.85;;;28.30;47.70;;;;;;4994125;28;20061;-74
2023/07/29 08:29:31;;;;;;;3.97;3.33;;;28.30;47.70;;;;;;4995184;28;20045;-74
2023/07/29 08:31:57;;;;;;;5.32;2.47;;;28.20;47.70;;;;;;4995009;28;20054;-75
2023/07/29 08:34:23;;;;;;;3.05;2.35;;;28.30;47.70;;;;;;5009179;28;20054;-74
2023/07/29 08:36:49;;;;;;;3.22;2.13;;;28.30;47.60;;;;;;4993750;28;20415;-75
2023/07/29 08:39:16;;;;;;;2.38;2.03;;;28.20;47.20;;;;;;4995157;28;20116;-75
2023/07/29 08:41:49;;;;;;;4.43;2.38;;;28.30;47.00;;;;;;4993523;28;20026;-74
2023/07/29 08:44:23;;;;;;;2.72;2.53;;;28.10;47.20;;;;;;4994825;28;20542;-75
2023/07/29 08:46:55;;;;;;;3.47;2.20;;;28.20;47.10;;;;;;4994944;28;20042;-75
2023/07/29 08:49:23;;;;;;;3.40;1.90;;;28.20;46.70;;;;;;4993559;28;20520;-74
2023/07/29 08:51:50;;;;;;;2.83;2.35;;;28.10;46.70;;;;;;4994813;28;20034;-74
2023/07/29 08:54:16;;;;;;;2.88;2.25;;;28.20;46.60;;;;;;4994637;28;20048;-74
2023/07/29 08:56:43;;;;;;;4.53;2.17;;;28.10;46.50;;;;;;4992564;28;20037;-74
2023/07/29 08:59:13;;;;;;;3.72;2.33;;;28.10;46.30;;;;;;4994578;28;20446;-74
2023/07/29 09:01:39;;;;;;;3.20;2.72;;;28.10;46.30;;;;;;4993995;28;20042;-74
2023/07/29 09:04:05;;;;;;;4.47;2.28;;;28.00;46.20;;;;;;4994480;28;20382;-75
2023/07/29 09:06:32;;;;;;;3.38;2.15;;;28.10;46.10;;;;;;4994647;28;20122;-75
2023/07/29 09:08:59;;;;;;;4.40;2.25;;;28.10;46.00;;;;;;4994471;28;20046;-76
2023/07/29 09:11:26;;;;;;;2.20;2.00;;;28.10;46.00;;;;;;4993681;28;20097;-75
2023/07/29 09:13:52;;;;;;;3.00;2.30;;;28.10;46.00;;;;;;4992572;28;20066;-75
2023/07/29 09:16:20;;;;;;;4.63;2.10;;;28.10;46.00;;;;;;4994643;28;20037;-75
2023/07/29 09:18:50;;;;;;;1.90;1.75;;;28.10;46.00;;;;;;4992945;28;20445;-74
2023/07/29 09:21:28;;;;;;;2.80;2.17;;;28.00;46.00;;;;;;4993209;28;20027;-75
2023/07/29 09:23:57;;;;;;;2.63;1.73;;;28.10;46.00;;;;;;4992612;28;20038;-75
2023/07/29 09:26:27;;;;;;;2.58;2.05;;;28.10;46.00;;;;;;4993409;28;20551;-75
2023/07/29 09:28:55;;;;;;;3.92;2.00;;;28.10;45.90;;;;;;4994206;28;20026;-75
2023/07/29 09:31:23;;;;;;;3.42;2.30;;;28.10;45.80;;;;;;4994132;28;20045;-74
2023/07/29 09:33:50;;;;;;;5.03;2.13;;;28.10;45.60;;;;;;4992856;28;20054;-74
2023/07/29 09:36:16;;;;;;;2.65;1.95;;;28.00;45.50;;;;;;4993929;28;20045;-75
2023/07/29 09:38:44;;;;;;;2.60;1.75;;;28.00;45.40;;;;;;4993898;28;20084;-72
2023/07/29 09:41:14;;;;;;;2.10;1.90;;;28.00;45.50;;;;;;4993098;28;20037;-75
2023/07/29 09:43:40;;;;;;;2.60;2.10;;;28.00;45.30;;;;;;4993893;28;20030;-75
2023/07/29 09:46:09;;;;;;;3.92;2.05;;;27.90;45.00;;;;;;4992641;28;20057;-75
2023/07/29 09:48:36;;;;;;;3.25;2.30;;;28.00;45.50;;;;;;4993866;28;20034;-75
2023/07/29 09:51:15;;;;;;;2.83;2.17;;;28.00;45.40;;;;;;4992857;28;20025;-75
2023/07/29 09:53:45;;;;;;;2.35;1.75;;;28.00;45.40;;;;;;4993722;28;20539;-75
2023/07/29 09:56:12;;;;;;;2.35;2.00;;;27.90;44.80;;;;;;4992837;28;20104;-75
2023/07/29 09:58:39;;;;;;;3.05;2.10;;;27.90;44.90;;;;;;4993675;28;20035;-75
2023/07/29 10:01:08;;;;;;;2.33;1.98;;;27.90;45.00;;;;;;4993452;28;20513;-75
2023/07/29 10:03:35;;;;;;;3.58;2.22;;;27.80;45.20;;;;;;5010593;28;20083;-75
2023/07/29 10:06:06;;;;;;;2.67;1.73;;;28.00;46.00;;;;;;5007807;28;20045;-74
2023/07/29 10:08:35;;;;;;;2.20;2.00;;;27.90;45.70;;;;;;5007874;28;20045;-69
2023/07/29 10:11:02;;;;;;;2.22;1.90;;;27.90;46.10;;;;;;4955686;28;20039;-72
2023/07/29 10:13:28;;;;;;;3.40;2.65;;;27.90;46.40;;;;;;4989666;28;20053;-68
2023/07/29 10:15:58;;;;;;;2.45;1.90;;;27.90;46.50;;;;;;4990393;28;20169;-67
2023/07/29 10:18:26;;;;;;;4.60;2.05;;;28.10;47.20;;;;;;4990686;28;20192;-68
2023/07/29 10:20:53;;;;;;;3.88;2.28;;;27.90;47.50;;;;;;4990344;28;20458;-67
2023/07/29 10:23:22;;;;;;;19.40;4.68;;;28.10;50.70;;;;;;4989455;28;20053;-69
2023/07/29 10:26:01;;;;;;;4.75;2.13;;;28.00;52.20;;;;;;4989743;28;20034;-70
2023/07/29 10:28:29;;;;;;;5.97;2.10;;;28.10;55.40;;;;;;4987139;28;20042;-68
2023/07/29 10:30:58;;;;;;;5.82;2.70;;;28.20;55.30;;;;;;4990440;28;20073;-69
2023/07/29 10:33:24;;;;;;;4.95;2.42;;;28.20;52.80;;;;;;4990230;28;20192;-73
2023/07/29 10:35:52;;;;;;;2.28;2.10;;;28.20;50.40;;;;;;4991993;28;20038;-70
2023/07/29 10:38:23;;;;;;;6.10;2.42;;;28.40;49.30;;;;;;4991896;28;20089;-70
2023/07/29 10:40:59;;;;;;;23.00;5.72;;;28.50;49.20;;;;;;4992948;28;20145;-69
2023/07/29 10:43:27;;;;;;;9.45;6.13;;;28.50;50.30;;;;;;4991506;28;20093;-71
2023/07/29 10:45:55;;;;;;;5.95;2.70;;;28.70;49.70;;;;;;4992516;28;20026;-71
2023/07/29 10:48:34;;;;;;;6.30;2.92;;;28.80;49.10;;;;;;4992603;28;20566;-70
2023/07/29 10:51:22;;;;;;;3.13;2.58;;;28.80;49.90;;;;;;4992817;28;20034;-70
2023/07/29 10:54:14;;;;;;;3.78;3.05;;;29.00;51.10;;;;;;4991727;28;20042;-71
2023/07/29 10:56:42;;;;;;;5.88;2.40;;;29.00;52.00;;;;;;4990056;28;20065;-72
2023/07/29 10:59:17;;;;;;;4.78;2.58;;;29.10;50.80;;;;;;4991720;28;20486;-71
2023/07/29 11:02:00;;;;;;;4.15;2.60;;;29.30;50.20;;;;;;4999513;28;20061;-70
2023/07/29 11:04:29;;;;;;;2.83;2.47;;;29.20;48.00;;;;;;4993023;28;20049;-72
2023/07/29 11:07:04;;;;;;;4.85;2.20;;;29.30;47.70;;;;;;4992087;28;20118;-71
2023/07/29 11:09:40;;;;;;;6.18;2.33;;;29.30;47.00;;;;;;5005909;28;20030;-73
2023/07/29 11:12:36;;;;;;;3.15;2.15;;;29.30;46.90;;;;;;4991517;28;20039;-70
2023/07/29 11:15:11;;;;;;;2.20;2.05;;;29.20;47.20;;;;;;4949130;29;20087;-72
2023/07/29 11:17:56;;;;;;;2.58;1.75;;;29.20;47.20;;;;;;4950891;29;20059;-73
2023/07/29 11:20:27;;;;;;;2.55;2.35;;;29.20;47.20;;;;;;4934829;29;20512;-72
2023/07/29 11:22:54;;;;;;;2.42;1.83;;;29.20;47.40;;;;;;4950113;29;20126;-73
2023/07/29 11:25:23;;;;;;;2.60;2.30;;;29.20;47.50;;;;;;4950658;29;20062;-73
2023/07/29 11:27:51;;;;;;;1.40;1.30;;;29.20;47.60;;;;;;4933869;29;20031;-70
2023/07/29 11:30:17;;;;;;;4.05;1.85;;;29.20;47.60;;;;;;4950655;29;20035;-73
2023/07/29 11:32:45;;;;;;;2.55;1.55;;;29.20;47.70;;;;;;4933770;29;20055;-72
2023/07/29 11:35:14;;;;;;;4.07;1.85;;;29.20;47.80;;;;;;4950310;28;20054;-74
2023/07/29 11:37:42;;;;;;;2.67;1.90;;;29.30;47.80;;;;;;4933875;29;20047;-72
2023/07/29 11:40:10;;;;;;;1.52;1.42;;;29.10;47.90;;;;;;4935883;28;20031;-72
2023/07/29 11:42:37;;;;;;;4.45;1.70;;;29.10;48.00;;;;;;4947896;29;20028;-72
2023/07/29 11:45:06;;;;;;;2.72;1.50;;;29.10;47.90;;;;;;4950191;28;20058;-71
2023/07/29 11:47:36;;;;;;;1.85;1.75;;;29.00;48.00;;;;;;4951850;28;20042;-71
2023/07/29 11:50:04;;;;;;;2.28;1.70;;;29.20;48.10;;;;;;4954842;29;20035;-70
2023/07/29 11:52:33;;;;;;;3.20;1.83;;;29.20;48.00;;;;;;4984013;28;20125;-71
2023/07/29 11:55:02;;;;;;;2.63;1.85;;;29.00;48.10;;;;;;4993909;28;20441;-72
2023/07/29 11:57:28;;;;;;;1.90;1.70;;;29.00;48.10;;;;;;4993277;28;20506;-73
2023/07/29 11:59:54;;;;;;;2.63;1.83;;;29.00;48.10;;;;;;5009824;28;20052;-71
2023/07/29 12:02:21;;;;;;;2.75;1.70;;;29.10;48.20;;;;;;4995740;28;20038;-71
2023/07/29 12:05:10;;;;;;;3.67;1.75;;;29.00;48.20;;;;;;5005857;28;20042;-72
2023/07/29 12:07:38;;;;;;;1.38;1.27;;;29.00;48.20;;;;;;4997814;28;20362;-71
2023/07/29 12:10:05;;;;;;;2.15;1.60;;;29.00;48.20;;;;;;5015140;28;20036;-71
2023/07/29 12:12:31;;;;;;;1.63;1.52;;;28.90;47.70;;;;;;5028479;28;20045;-72
2023/07/29 12:14:58;;;;;;;2.00;1.80;;;28.90;47.80;;;;;;4994926;28;20034;-71
2023/07/29 12:17:24;;;;;;;1.67;1.40;;;29.00;48.40;;;;;;4995319;28;20038;-71
2023/07/29 12:19:54;;;;;;;1.60;1.50;;;28.90;47.90;;;;;;4995498;28;20042;-71
2023/07/29 12:22:20;;;;;;;2.22;1.60;;;29.00;48.60;;;;;;4994910;28;20466;-71
2023/07/29 12:24:47;;;;;;;1.60;1.42;;;28.90;48.00;;;;;;5023729;28;20368;-71
2023/07/29 12:27:15;;;;;;;3.47;1.38;;;28.90;48.00;;;;;;4995093;28;20096;-71
2023/07/29 12:30:03;;;;;;;3.33;1.60;;;28.90;48.10;;;;;;4994204;28;20445;-72
2023/07/29 12:32:30;;;;;;;1.92;1.73;;;29.00;48.70;;;;;;4995013;28;20061;-71
2023/07/29 12:34:57;;;;;;;2.33;1.60;;;29.00;48.70;;;;;;4994773;28;20035;-71
2023/07/29 12:37:32;;;;;;;1.67;1.30;;;28.90;48.20;;;;;;4995033;28;20466;-72
2023/07/29 12:39:58;;;;;;;2.28;1.42;;;28.90;48.30;;;;;;4994125;28;20040;-71
2023/07/29 12:42:24;;;;;;;2.30;1.35;;;28.80;48.30;;;;;;4994910;28;20026;-71
2023/07/29 12:44:50;;;;;;;1.83;1.65;;;28.90;48.30;;;;;;4993681;28;20038;-71
2023/07/29 12:47:16;;;;;;;2.38;1.70;;;28.90;48.40;;;;;;4994423;28;20031;-70
2023/07/29 12:49:42;;;;;;;2.42;2.20;;;28.90;48.50;;;;;;4993960;28;20045;-70